sensor_id;sensor_type;location;lat;lon;timestamp;pressure;altitude;pressure_sealevel;temperature;humidity
41686;BME280;27370;42.764;23.432;2023-07-09T00:00:17;96021.34;;;14.16;100.00
41686;BME280;27370;42.764;23.432;2023-07-09T00:02:44;96014.13;;;14.25;100.00
41686;BME280;27370;42.764;23.432;2023-07-09T00:05:16;96005.84;;;14.32;100.00
41686;BME280;27370;42.764;23.432;2023-07-09T00:07:43;95994.53;;;14.34;100.00
41686;BME280;27370;42.764;23.432;2023-07-09T00:10:18;95996.91;;;14.32;100.00
41686;BME280;27370;42.764;23.432;2023-07-09T00:12:45;95995.38;;;14.31;100.00
41686;BME280;27370;42.764;23.432;2023-07-09T00:15:12;96002.47;;;14.25;100.00
41686;BME280;27370;42.764;23.432;2023-07-09T00:17:38;96003.91;;;14.13;100.00
41686;BME280;27370;42.764;23.432;2023-07-09T00:20:07;96007.66;;;13.99;100.00
41686;BME280;27370;42.764;23.432;2023-07-09T00:22:43;96001.44;;;13.99;100.00
41686;BME280;27370;42.764;23.432;2023-07-09T00:25:19;96005.34;;;13.98;100.00
41686;BME280;27370;42.764;23.432;2023-07-09T00:27:45;96006.69;;;14.09;100.00
41686;BME280;27370;42.764;23.432;2023-07-09T00:30:21;96010.16;;;13.90;100.00
41686;BME280;27370;42.764;23.432;2023-07-09T00:32:50;96001.31;;;13.86;100.00
41686;BME280;27370;42.764;23.432;2023-07-09T00:35:18;96015.34;;;13.85;100.00
41686;BME280;27370;42.764;23.432;2023-07-09T00:37:45;96014.06;;;13.89;100.00
41686;BME280;27370;42.764;23.432;2023-07-09T00:40:22;96012.97;;;13.87;100.00
41686;BME280;27370;42.764;23.432;2023-07-09T00:42:50;96015.63;;;13.90;100.00
41686;BME280;27370;42.764;23.432;2023-07-09T00:45:20;96011.84;;;13.84;100.00
41686;BME280;27370;42.764;23.432;2023-07-09T00:47:57;96007.59;;;13.83;100.00
41686;BME280;27370;42.764;23.432;2023-07-09T00:50:46;96014.22;;;13.82;100.00
41686;BME280;27370;42.764;23.432;2023-07-09T00:53:25;96008.03;;;13.78;100.00
41686;BME280;27370;42.764;23.432;2023-07-09T00:56:06;95999.88;;;13.78;100.00
41686;BME280;27370;42.764;23.432;2023-07-09T00:58:37;96003.31;;;13.82;100.00
41686;BME280;27370;42.764;23.432;2023-07-09T01:01:06;96003.13;;;13.93;100.00
41686;BME280;27370;42.764;23.432;2023-07-09T01:03:43;96002.34;;;13.92;100.00
41686;BME280;27370;42.764;23.432;2023-07-09T01:06:10;96005.84;;;13.93;100.00
41686;BME280;27370;42.764;23.432;2023-07-09T01:08:38;95995.22;;;13.98;100.00
41686;BME280;27370;42.764;23.432;2023-07-09T01:11:17;96000.31;;;13.96;100.00
41686;BME280;27370;42.764;23.432;2023-07-09T01:14:07;96011.56;;;13.98;100.00
41686;BME280;27370;42.764;23.432;2023-07-09T01:16:58;96007.88;;;14.08;100.00
41686;BME280;27370;42.764;23.432;2023-07-09T01:19:35;96003.63;;;14.07;100.00
41686;BME280;27370;42.764;23.432;2023-07-09T01:22:09;95987.75;;;14.02;100.00
41686;BME280;27370;42.764;23.432;2023-07-09T01:25:00;95995.78;;;14.09;100.00
41686;BME280;27370;42.764;23.432;2023-07-09T01:27:37;95980.41;;;13.99;100.00
41686;BME280;27370;42.764;23.432;2023-07-09T01:30:09;95985.19;;;13.95;100.00
41686;BME280;27370;42.764;23.432;2023-07-09T01:32:37;95987.69;;;13.86;100.00
41686;BME280;27370;42.764;23.432;2023-07-09T01:35:04;95988.78;;;13.69;100.00
41686;BME280;27370;42.764;23.432;2023-07-09T01:37:36;95983.72;;;13.47;100.00
41686;BME280;27370;42.764;23.432;2023-07-09T01:40:03;95983.38;;;13.45;100.00
41686;BME280;27370;42.764;23.432;2023-07-09T01:42:32;95980.66;;;13.45;100.00
41686;BME280;27370;42.764;23.432;2023-07-09T01:44:58;95988.25;;;13.54;100.00
41686;BME280;27370;42.764;23.432;2023-07-09T01:47:24;95998.31;;;13.57;100.00
41686;BME280;27370;42.764;23.432;2023-07-09T01:49:50;95995.84;;;13.66;100.00
41686;BME280;27370;42.764;23.432;2023-07-09T01:52:16;95999.81;;;13.62;100.00
41686;BME280;27370;42.764;23.432;2023-07-09T01:54:45;95997.97;;;13.32;100.00
41686;BME280;27370;42.764;23.432;2023-07-09T01:57:25;96012.47;;;13.25;100.00
41686;BME280;27370;42.764;23.432;2023-07-09T02:00:09;96009.19;;;13.34;100.00
41686;BME280;27370;42.764;23.432;2023-07-09T02:02:44;95997.53;;;13.37;100.00
41686;BME280;27370;42.764;23.432;2023-07-09T02:05:12;96004.66;;;13.51;100.00
41686;BME280;27370;42.764;23.432;2023-07-09T02:07:39;95996.00;;;13.56;100.00
41686;BME280;27370;42.764;23.432;2023-07-09T02:10:06;95999.28;;;13.47;100.00
41686;BME280;27370;42.764;23.432;2023-07-09T02:12:31;96005.31;;;13.35;100.00
41686;BME280;27370;42.764;23.432;2023-07-09T02:14:57;96009.88;;;13.18;100.00
41686;BME280;27370;42.764;23.432;2023-07-09T02:17:23;95994.31;;;13.18;100.00
41686;BME280;27370;42.764;23.432;2023-07-09T02:19:50;96006.38;;;13.17;100.00
41686;BME280;27370;42.764;23.432;2023-07-09T02:22:15;96006.69;;;12.96;100.00
41686;BME280;27370;42.764;23.432;2023-07-09T02:24:41;96008.28;;;12.94;100.00
41686;BME280;27370;42.764;23.432;2023-07-09T02:27:08;96000.97;;;12.87;100.00
41686;BME280;27370;42.764;23.432;2023-07-09T02:29:36;96005.75;;;12.79;100.00
41686;BME280;27370;42.764;23.432;2023-07-09T02:32:04;96016.88;;;12.88;100.00
41686;BME280;27370;42.764;23.432;2023-07-09T02:34:30;96015.84;;;12.79;100.00
41686;BME280;27370;42.764;23.432;2023-07-09T02:36:58;96015.25;;;12.68;100.00
41686;BME280;27370;42.764;23.432;2023-07-09T02:39:24;96016.91;;;12.58;100.00
41686;BME280;27370;42.764;23.432;2023-07-09T02:41:50;96024.09;;;12.45;100.00
41686;BME280;27370;42.764;23.432;2023-07-09T02:44:16;96036.50;;;12.46;100.00
41686;BME280;27370;42.764;23.432;2023-07-09T02:46:43;96037.75;;;12.38;100.00
41686;BME280;27370;42.764;23.432;2023-07-09T02:49:10;96039.28;;;12.39;100.00
41686;BME280;27370;42.764;23.432;2023-07-09T02:51:36;96043.94;;;12.38;100.00
41686;BME280;27370;42.764;23.432;2023-07-09T02:54:03;96038.94;;;12.37;100.00
41686;BME280;27370;42.764;23.432;2023-07-09T02:56:30;96047.03;;;12.40;100.00
41686;BME280;27370;42.764;23.432;2023-07-09T02:58:56;96055.50;;;12.46;100.00
41686;BME280;27370;42.764;23.432;2023-07-09T03:01:22;96046.72;;;12.35;100.00
41686;BME280;27370;42.764;23.432;2023-07-09T03:03:51;96049.38;;;12.38;100.00
41686;BME280;27370;42.764;23.432;2023-07-09T03:06:19;96057.06;;;12.43;100.00
41686;BME280;27370;42.764;23.432;2023-07-09T03:08:44;96062.38;;;12.54;100.00
41686;BME280;27370;42.764;23.432;2023-07-09T03:11:15;96059.72;;;12.50;100.00
41686;BME280;27370;42.764;23.432;2023-07-09T03:13:41;96064.34;;;12.53;100.00
41686;BME280;27370;42.764;23.432;2023-07-09T03:16:07;96055.13;;;12.44;100.00
41686;BME280;27370;42.764;23.432;2023-07-09T03:18:33;96065.88;;;12.54;100.00
41686;BME280;27370;42.764;23.432;2023-07-09T03:20:59;96064.03;;;12.48;100.00
41686;BME280;27370;42.764;23.432;2023-07-09T03:23:25;96061.31;;;12.44;100.00
41686;BME280;27370;42.764;23.432;2023-07-09T03:25:51;96070.84;;;12.60;100.00
41686;BME280;27370;42.764;23.432;2023-07-09T03:28:16;96062.75;;;12.56;100.00
41686;BME280;27370;42.764;23.432;2023-07-09T03:30:43;96064.09;;;12.71;100.00
41686;BME280;27370;42.764;23.432;2023-07-09T03:33:11;96067.13;;;12.77;100.00
41686;BME280;27370;42.764;23.432;2023-07-09T03:35:37;96064.72;;;12.82;100.00
41686;BME280;27370;42.764;23.432;2023-07-09T03:38:04;96073.50;;;12.94;100.00
41686;BME280;27370;42.764;23.432;2023-07-09T03:40:30;96072.56;;;13.04;100.00
41686;BME280;27370;42.764;23.432;2023-07-09T03:42:56;96067.78;;;13.15;100.00
41686;BME280;27370;42.764;23.432;2023-07-09T03:45:21;96064.44;;;13.31;100.00
41686;BME280;27370;42.764;23.432;2023-07-09T03:47:47;96069.94;;;13.51;100.00
41686;BME280;27370;42.764;23.432;2023-07-09T03:50:13;96069.13;;;13.54;100.00
41686;BME280;27370;42.764;23.432;2023-07-09T03:52:38;96057.78;;;13.82;100.00
41686;BME280;27370;42.764;23.432;2023-07-09T03:55:04;96063.91;;;13.86;100.00
41686;BME280;27370;42.764;23.432;2023-07-09T03:57:31;96058.53;;;13.83;100.00
41686;BME280;27370;42.764;23.432;2023-07-09T03:59:56;96062.25;;;13.69;100.00
41686;BME280;27370;42.764;23.432;2023-07-09T04:02:22;96073.84;;;13.96;100.00
41686;BME280;27370;42.764;23.432;2023-07-09T04:04:47;96074.88;;;14.26;100.00
41686;BME280;27370;42.764;23.432;2023-07-09T04:07:13;96061.72;;;14.40;100.00
41686;BME280;27370;42.764;23.432;2023-07-09T04:09:38;96067.69;;;14.55;100.00
41686;BME280;27370;42.764;23.432;2023-07-09T04:12:05;96069.97;;;14.77;100.00
41686;BME280;27370;42.764;23.432;2023-07-09T04:14:31;96067.59;;;14.79;100.00
41686;BME280;27370;42.764;23.432;2023-07-09T04:16:56;96071.25;;;14.88;100.00
41686;BME280;27370;42.764;23.432;2023-07-09T04:19:23;96075.31;;;15.00;100.00
41686;BME280;27370;42.764;23.432;2023-07-09T04:21:48;96084.34;;;15.13;100.00
41686;BME280;27370;42.764;23.432;2023-07-09T04:24:16;96073.78;;;15.15;100.00
41686;BME280;27370;42.764;23.432;2023-07-09T04:26:42;96080.38;;;15.34;100.00
41686;BME280;27370;42.764;23.432;2023-07-09T04:29:07;96080.56;;;15.59;100.00
41686;BME280;27370;42.764;23.432;2023-07-09T04:31:33;96081.34;;;15.76;100.00
41686;BME280;27370;42.764;23.432;2023-07-09T04:33:59;96077.25;;;15.84;100.00
41686;BME280;27370;42.764;23.432;2023-07-09T04:36:24;96072.16;;;15.99;100.00
41686;BME280;27370;42.764;23.432;2023-07-09T04:38:51;96076.16;;;16.11;100.00
41686;BME280;27370;42.764;23.432;2023-07-09T04:41:17;96072.91;;;16.16;100.00
41686;BME280;27370;42.764;23.432;2023-07-09T04:43:42;96072.38;;;16.21;100.00
41686;BME280;27370;42.764;23.432;2023-07-09T04:46:08;96063.16;;;16.44;100.00
41686;BME280;27370;42.764;23.432;2023-07-09T04:48:34;96070.44;;;16.63;100.00
41686;BME280;27370;42.764;23.432;2023-07-09T04:50:59;96060.25;;;16.64;100.00
41686;BME280;27370;42.764;23.432;2023-07-09T04:53:25;96071.16;;;16.80;100.00
41686;BME280;27370;42.764;23.432;2023-07-09T04:55:51;96058.25;;;17.06;100.00
41686;BME280;27370;42.764;23.432;2023-07-09T04:58:17;96053.22;;;17.17;100.00
41686;BME280;27370;42.764;23.432;2023-07-09T05:00:44;96065.69;;;17.18;100.00
41686;BME280;27370;42.764;23.432;2023-07-09T05:03:10;96053.63;;;17.41;100.00
41686;BME280;27370;42.764;23.432;2023-07-09T05:05:44;96061.06;;;17.79;100.00
41686;BME280;27370;42.764;23.432;2023-07-09T05:08:11;96046.44;;;17.94;100.00
41686;BME280;27370;42.764;23.432;2023-07-09T05:10:46;96045.94;;;18.09;100.00
41686;BME280;27370;42.764;23.432;2023-07-09T05:13:12;96060.25;;;18.25;100.00
41686;BME280;27370;42.764;23.432;2023-07-09T05:15:43;96048.19;;;18.45;100.00
41686;BME280;27370;42.764;23.432;2023-07-09T05:18:09;96051.09;;;18.63;100.00
41686;BME280;27370;42.764;23.432;2023-07-09T05:20:35;96042.88;;;18.63;100.00
41686;BME280;27370;42.764;23.432;2023-07-09T05:23:00;96044.25;;;18.67;100.00
41686;BME280;27370;42.764;23.432;2023-07-09T05:25:26;96042.28;;;18.68;100.00
41686;BME280;27370;42.764;23.432;2023-07-09T05:27:52;96046.03;;;18.83;100.00
41686;BME280;27370;42.764;23.432;2023-07-09T05:30:18;96044.72;;;18.66;100.00
41686;BME280;27370;42.764;23.432;2023-07-09T05:32:44;96051.41;;;18.65;100.00
41686;BME280;27370;42.764;23.432;2023-07-09T05:35:10;96051.41;;;18.65;100.00
41686;BME280;27370;42.764;23.432;2023-07-09T05:37:36;96050.25;;;18.75;100.00
41686;BME280;27370;42.764;23.432;2023-07-09T05:40:02;96044.88;;;18.72;100.00
41686;BME280;27370;42.764;23.432;2023-07-09T05:42:27;96046.22;;;18.89;100.00
41686;BME280;27370;42.764;23.432;2023-07-09T05:44:53;96039.28;;;19.06;100.00
41686;BME280;27370;42.764;23.432;2023-07-09T05:47:19;96048.72;;;19.05;100.00
41686;BME280;27370;42.764;23.432;2023-07-09T05:49:44;96043.25;;;19.05;100.00
41686;BME280;27370;42.764;23.432;2023-07-09T05:52:15;96050.84;;;19.01;100.00
41686;BME280;27370;42.764;23.432;2023-07-09T05:54:40;96043.72;;;19.13;100.00
41686;BME280;27370;42.764;23.432;2023-07-09T05:57:06;96043.88;;;19.18;100.00
41686;BME280;27370;42.764;23.432;2023-07-09T05:59:32;96034.34;;;19.32;100.00
41686;BME280;27370;42.764;23.432;2023-07-09T06:01:57;96030.38;;;19.42;100.00
41686;BME280;27370;42.764;23.432;2023-07-09T06:04:23;96040.88;;;19.75;100.00
41686;BME280;27370;42.764;23.432;2023-07-09T06:06:50;96035.56;;;19.99;100.00
41686;BME280;27370;42.764;23.432;2023-07-09T06:09:16;96043.03;;;20.07;100.00
41686;BME280;27370;42.764;23.432;2023-07-09T06:11:41;96029.13;;;20.11;100.00
41686;BME280;27370;42.764;23.432;2023-07-09T06:14:07;96030.38;;;20.01;100.00
41686;BME280;27370;42.764;23.432;2023-07-09T06:16:32;96030.19;;;19.86;100.00
41686;BME280;27370;42.764;23.432;2023-07-09T06:18:58;96034.94;;;20.22;100.00
41686;BME280;27370;42.764;23.432;2023-07-09T06:21:23;96018.91;;;20.11;100.00
41686;BME280;27370;42.764;23.432;2023-07-09T06:23:49;96026.41;;;20.20;100.00
41686;BME280;27370;42.764;23.432;2023-07-09T06:26:15;96023.81;;;20.16;100.00
41686;BME280;27370;42.764;23.432;2023-07-09T06:28:40;96032.34;;;20.55;100.00
41686;BME280;27370;42.764;23.432;2023-07-09T06:31:06;96026.78;;;20.73;100.00
41686;BME280;27370;42.764;23.432;2023-07-09T06:33:31;96030.44;;;20.79;100.00
41686;BME280;27370;42.764;23.432;2023-07-09T06:35:59;96034.72;;;20.90;100.00
41686;BME280;27370;42.764;23.432;2023-07-09T06:38:26;96021.03;;;21.04;100.00
41686;BME280;27370;42.764;23.432;2023-07-09T06:40:53;96028.22;;;21.44;100.00
41686;BME280;27370;42.764;23.432;2023-07-09T06:43:19;96014.81;;;21.61;100.00
41686;BME280;27370;42.764;23.432;2023-07-09T06:45:53;96022.22;;;21.79;100.00
41686;BME280;27370;42.764;23.432;2023-07-09T06:48:19;96013.03;;;22.20;100.00
41686;BME280;27370;42.764;23.432;2023-07-09T06:50:46;96015.66;;;22.53;100.00
41686;BME280;27370;42.764;23.432;2023-07-09T06:53:12;96021.94;;;22.54;100.00
41686;BME280;27370;42.764;23.432;2023-07-09T06:55:37;96008.34;;;22.12;100.00
41686;BME280;27370;42.764;23.432;2023-07-09T06:58:03;96016.34;;;22.10;100.00
41686;BME280;27370;42.764;23.432;2023-07-09T07:00:29;96012.44;;;21.92;100.00
41686;BME280;27370;42.764;23.432;2023-07-09T07:02:54;96007.88;;;22.13;100.00
41686;BME280;27370;42.764;23.432;2023-07-09T07:05:20;96000.97;;;22.33;100.00
41686;BME280;27370;42.764;23.432;2023-07-09T07:07:45;96005.94;;;22.43;100.00
41686;BME280;27370;42.764;23.432;2023-07-09T07:10:11;96003.38;;;22.54;100.00
41686;BME280;27370;42.764;23.432;2023-07-09T07:12:44;95998.72;;;22.46;100.00
41686;BME280;27370;42.764;23.432;2023-07-09T07:15:15;96002.91;;;22.41;100.00
41686;BME280;27370;42.764;23.432;2023-07-09T07:17:41;96003.66;;;22.56;100.00
41686;BME280;27370;42.764;23.432;2023-07-09T07:20:09;96003.25;;;22.78;100.00
41686;BME280;27370;42.764;23.432;2023-07-09T07:22:35;95996.34;;;22.83;100.00
41686;BME280;27370;42.764;23.432;2023-07-09T07:25:01;95990.03;;;22.97;100.00
41686;BME280;27370;42.764;23.432;2023-07-09T07:27:26;95984.56;;;23.17;100.00
41686;BME280;27370;42.764;23.432;2023-07-09T07:29:52;95980.25;;;23.31;100.00
41686;BME280;27370;42.764;23.432;2023-07-09T07:32:19;95987.50;;;23.29;100.00
41686;BME280;27370;42.764;23.432;2023-07-09T07:34:46;95984.94;;;23.25;100.00
41686;BME280;27370;42.764;23.432;2023-07-09T07:37:12;95972.25;;;23.33;100.00
41686;BME280;27370;42.764;23.432;2023-07-09T07:39:38;95983.16;;;23.57;100.00
41686;BME280;27370;42.764;23.432;2023-07-09T07:42:04;95978.56;;;23.54;100.00
41686;BME280;27370;42.764;23.432;2023-07-09T07:44:30;95975.44;;;23.46;100.00
41686;BME280;27370;42.764;23.432;2023-07-09T07:46:55;95971.16;;;23.45;100.00
41686;BME280;27370;42.764;23.432;2023-07-09T07:49:21;95974.03;;;23.36;100.00
41686;BME280;27370;42.764;23.432;2023-07-09T07:51:46;95978.94;;;23.47;100.00
41686;BME280;27370;42.764;23.432;2023-07-09T07:54:13;95982.09;;;23.75;100.00
41686;BME280;27370;42.764;23.432;2023-07-09T07:56:40;95990.34;;;23.90;100.00
41686;BME280;27370;42.764;23.432;2023-07-09T07:59:05;95980.72;;;23.85;100.00
41686;BME280;27370;42.764;23.432;2023-07-09T08:01:31;95973.78;;;23.95;100.00
41686;BME280;27370;42.764;23.432;2023-07-09T08:03:57;95974.50;;;23.90;100.00
41686;BME280;27370;42.764;23.432;2023-07-09T08:06:23;95981.69;;;24.02;100.00
41686;BME280;27370;42.764;23.432;2023-07-09T08:08:48;95970.03;;;24.19;100.00
41686;BME280;27370;42.764;23.432;2023-07-09T08:11:14;95977.72;;;24.09;100.00
41686;BME280;27370;42.764;23.432;2023-07-09T08:13:40;95961.72;;;24.19;100.00
41686;BME280;27370;42.764;23.432;2023-07-09T08:16:07;95965.81;;;24.23;100.00
41686;BME280;27370;42.764;23.432;2023-07-09T08:18:32;95957.59;;;24.08;100.00
41686;BME280;27370;42.764;23.432;2023-07-09T08:20:59;95965.06;;;24.23;100.00
41686;BME280;27370;42.764;23.432;2023-07-09T08:23:25;95962.22;;;24.17;100.00
41686;BME280;27370;42.764;23.432;2023-07-09T08:25:55;95952.84;;;24.09;100.00
41686;BME280;27370;42.764;23.432;2023-07-09T08:28:21;95952.34;;;24.10;100.00
41686;BME280;27370;42.764;23.432;2023-07-09T08:30:46;95947.22;;;24.24;100.00
41686;BME280;27370;42.764;23.432;2023-07-09T08:33:12;95955.78;;;24.26;100.00
41686;BME280;27370;42.764;23.432;2023-07-09T08:35:37;95946.09;;;24.16;100.00
41686;BME280;27370;42.764;23.432;2023-07-09T08:38:03;95946.13;;;24.41;100.00
41686;BME280;27370;42.764;23.432;2023-07-09T08:40:29;95950.75;;;24.50;100.00
41686;BME280;27370;42.764;23.432;2023-07-09T08:43:02;95954.19;;;24.71;100.00
41686;BME280;27370;42.764;23.432;2023-07-09T08:45:50;95959.09;;;24.87;100.00
41686;BME280;27370;42.764;23.432;2023-07-09T08:48:32;95954.91;;;24.97;100.00
41686;BME280;27370;42.764;23.432;2023-07-09T08:51:12;95945.72;;;24.86;100.00
41686;BME280;27370;42.764;23.432;2023-07-09T08:56:13;95951.44;;;25.02;100.00
41686;BME280;27370;42.764;23.432;2023-07-09T08:58:40;95955.56;;;24.87;100.00
41686;BME280;27370;42.764;23.432;2023-07-09T09:01:19;95946.66;;;25.03;100.00
41686;BME280;27370;42.764;23.432;2023-07-09T09:04:00;95935.56;;;25.03;100.00
41686;BME280;27370;42.764;23.432;2023-07-09T09:06:29;95946.75;;;25.20;100.00
41686;BME280;27370;42.764;23.432;2023-07-09T09:11:56;95953.56;;;25.19;100.00
41686;BME280;27370;42.764;23.432;2023-07-09T09:14:40;95945.56;;;25.32;100.00
41686;BME280;27370;42.764;23.432;2023-07-09T09:17:15;95944.72;;;25.57;100.00
41686;BME280;27370;42.764;23.432;2023-07-09T09:19:56;95947.88;;;25.39;100.00
41686;BME280;27370;42.764;23.432;2023-07-09T09:22:26;95949.41;;;25.40;100.00
41686;BME280;27370;42.764;23.432;2023-07-09T09:27:25;95937.84;;;25.53;100.00
41686;BME280;27370;42.764;23.432;2023-07-09T09:29:50;95928.59;;;25.61;100.00
41686;BME280;27370;42.764;23.432;2023-07-09T09:32:29;95943.84;;;25.94;100.00
41686;BME280;27370;42.764;23.432;2023-07-09T09:34:56;95930.16;;;25.79;100.00
41686;BME280;27370;42.764;23.432;2023-07-09T09:39:52;95929.53;;;26.12;100.00
41686;BME280;27370;42.764;23.432;2023-07-09T09:42:18;95927.88;;;25.72;100.00
41686;BME280;27370;42.764;23.432;2023-07-09T09:44:44;95928.94;;;25.86;100.00
41686;BME280;27370;42.764;23.432;2023-07-09T09:47:11;95930.22;;;25.85;100.00
41686;BME280;27370;42.764;23.432;2023-07-09T09:49:43;95926.50;;;26.05;100.00
41686;BME280;27370;42.764;23.432;2023-07-09T09:52:17;95927.28;;;26.28;100.00
41686;BME280;27370;42.764;23.432;2023-07-09T09:54:53;95916.94;;;26.28;100.00
41686;BME280;27370;42.764;23.432;2023-07-09T09:57:23;95922.00;;;26.46;100.00
41686;BME280;27370;42.764;23.432;2023-07-09T09:59:49;95936.44;;;26.56;100.00
41686;BME280;27370;42.764;23.432;2023-07-09T10:02:20;95921.78;;;26.72;100.00
41686;BME280;27370;42.764;23.432;2023-07-09T10:04:46;95924.03;;;26.91;100.00
41686;BME280;27370;42.764;23.432;2023-07-09T10:07:21;95915.44;;;26.83;100.00
41686;BME280;27370;42.764;23.432;2023-07-09T10:09:50;95911.69;;;26.75;100.00
41686;BME280;27370;42.764;23.432;2023-07-09T10:15:11;95915.91;;;26.14;100.00
41686;BME280;27370;42.764;23.432;2023-07-09T10:17:48;95911.69;;;26.52;100.00
41686;BME280;27370;42.764;23.432;2023-07-09T10:20:24;95913.44;;;26.61;100.00
41686;BME280;27370;42.764;23.432;2023-07-09T10:25:45;95910.94;;;26.74;100.00
41686;BME280;27370;42.764;23.432;2023-07-09T10:39:58;95899.25;;;27.15;100.00
41686;BME280;27370;42.764;23.432;2023-07-09T10:42:29;95891.66;;;27.15;100.00
41686;BME280;27370;42.764;23.432;2023-07-09T10:45:04;95893.19;;;27.11;100.00
41686;BME280;27370;42.764;23.432;2023-07-09T10:47:37;95875.88;;;27.52;100.00
41686;BME280;27370;42.764;23.432;2023-07-09T10:50:09;95887.88;;;27.88;100.00
41686;BME280;27370;42.764;23.432;2023-07-09T10:52:39;95873.47;;;27.84;100.00
41686;BME280;27370;42.764;23.432;2023-07-09T10:58:03;95879.38;;;27.58;100.00
41686;BME280;27370;42.764;23.432;2023-07-09T11:00:37;95874.53;;;27.75;100.00
41686;BME280;27370;42.764;23.432;2023-07-09T11:03:22;95881.97;;;27.50;100.00
41686;BME280;27370;42.764;23.432;2023-07-09T11:05:50;95882.91;;;27.69;100.00
41686;BME280;27370;42.764;23.432;2023-07-09T11:08:33;95878.00;;;27.92;100.00
41686;BME280;27370;42.764;23.432;2023-07-09T11:11:04;95884.03;;;27.96;100.00
41686;BME280;27370;42.764;23.432;2023-07-09T11:13:43;95887.63;;;27.91;100.00
41686;BME280;27370;42.764;23.432;2023-07-09T11:16:14;95880.78;;;27.92;100.00
41686;BME280;27370;42.764;23.432;2023-07-09T11:18:54;95885.06;;;27.93;100.00
41686;BME280;27370;42.764;23.432;2023-07-09T11:21:20;95883.97;;;28.08;100.00
41686;BME280;27370;42.764;23.432;2023-07-09T11:23:51;95881.06;;;28.24;100.00
41686;BME280;27370;42.764;23.432;2023-07-09T11:26:25;95886.03;;;28.01;100.00
41686;BME280;27370;42.764;23.432;2023-07-09T11:28:54;95880.53;;;27.90;100.00
41686;BME280;27370;42.764;23.432;2023-07-09T11:31:23;95878.09;;;27.70;100.00
41686;BME280;27370;42.764;23.432;2023-07-09T11:37:11;95862.25;;;28.00;100.00
41686;BME280;27370;42.764;23.432;2023-07-09T11:42:03;95875.88;;;27.63;100.00
41686;BME280;27370;42.764;23.432;2023-07-09T11:44:31;95866.44;;;27.77;100.00
41686;BME280;27370;42.764;23.432;2023-07-09T11:50:21;95868.97;;;28.16;100.00
41686;BME280;27370;42.764;23.432;2023-07-09T11:52:50;95866.75;;;27.68;100.00
41686;BME280;27370;42.764;23.432;2023-07-09T11:55:28;95855.44;;;27.96;100.00
41686;BME280;27370;42.764;23.432;2023-07-09T11:58:00;95848.91;;;28.23;100.00
41686;BME280;27370;42.764;23.432;2023-07-09T12:00:28;95867.47;;;28.15;100.00
41686;BME280;27370;42.764;23.432;2023-07-09T12:02:55;95853.47;;;28.32;100.00
41686;BME280;27370;42.764;23.432;2023-07-09T12:05:26;95854.47;;;28.29;100.00
41686;BME280;27370;42.764;23.432;2023-07-09T12:07:53;95845.81;;;28.38;100.00
41686;BME280;27370;42.764;23.432;2023-07-09T12:10:25;95842.81;;;28.60;100.00
41686;BME280;27370;42.764;23.432;2023-07-09T12:12:56;95837.69;;;28.40;100.00
41686;BME280;27370;42.764;23.432;2023-07-09T12:15:28;95847.13;;;28.31;100.00
41686;BME280;27370;42.764;23.432;2023-07-09T12:18:02;95839.78;;;28.28;100.00
41686;BME280;27370;42.764;23.432;2023-07-09T12:20:33;95833.63;;;28.41;100.00
41686;BME280;27370;42.764;23.432;2023-07-09T12:22:59;95837.84;;;28.48;100.00
41686;BME280;27370;42.764;23.432;2023-07-09T12:25:27;95830.78;;;28.77;100.00
41686;BME280;27370;42.764;23.432;2023-07-09T12:27:53;95833.69;;;28.90;100.00
41686;BME280;27370;42.764;23.432;2023-07-09T12:30:19;95834.72;;;29.11;100.00
41686;BME280;27370;42.764;23.432;2023-07-09T12:32:50;95826.81;;;29.15;100.00
41686;BME280;27370;42.764;23.432;2023-07-09T12:35:18;95822.06;;;29.10;100.00
41686;BME280;27370;42.764;23.432;2023-07-09T12:37:46;95830.06;;;29.19;100.00
41686;BME280;27370;42.764;23.432;2023-07-09T12:40:15;95822.97;;;29.43;100.00
41686;BME280;27370;42.764;23.432;2023-07-09T12:42:42;95828.03;;;29.63;100.00
41686;BME280;27370;42.764;23.432;2023-07-09T12:45:16;95820.84;;;29.86;100.00
41686;BME280;27370;42.764;23.432;2023-07-09T12:47:43;95811.44;;;29.52;100.00
41686;BME280;27370;42.764;23.432;2023-07-09T12:50:30;95815.00;;;29.52;100.00
41686;BME280;27370;42.764;23.432;2023-07-09T12:53:02;95822.25;;;29.37;100.00
41686;BME280;27370;42.764;23.432;2023-07-09T12:55:29;95815.06;;;29.47;100.00
41686;BME280;27370;42.764;23.432;2023-07-09T12:58:10;95808.50;;;29.63;100.00
41686;BME280;27370;42.764;23.432;2023-07-09T13:00:36;95811.97;;;29.50;100.00
41686;BME280;27370;42.764;23.432;2023-07-09T13:03:02;95812.06;;;29.39;100.00
41686;BME280;27370;42.764;23.432;2023-07-09T13:05:28;95819.38;;;29.23;100.00
41686;BME280;27370;42.764;23.432;2023-07-09T13:07:59;95824.91;;;29.29;100.00
41686;BME280;27370;42.764;23.432;2023-07-09T13:10:28;95820.13;;;29.48;100.00
41686;BME280;27370;42.764;23.432;2023-07-09T13:12:55;95822.66;;;29.03;100.00
41686;BME280;27370;42.764;23.432;2023-07-09T13:15:25;95823.72;;;29.19;100.00
41686;BME280;27370;42.764;23.432;2023-07-09T13:18:03;95817.66;;;29.20;100.00
41686;BME280;27370;42.764;23.432;2023-07-09T13:20:31;95828.78;;;29.45;100.00
41686;BME280;27370;42.764;23.432;2023-07-09T13:22:58;95817.31;;;29.05;100.00
41686;BME280;27370;42.764;23.432;2023-07-09T13:25:24;95807.28;;;28.42;100.00
41686;BME280;27370;42.764;23.432;2023-07-09T13:27:50;95811.47;;;27.89;100.00